Time;durP1;ratioP1;P1;durP2;ratioP2;P2;SDS_P1;SDS_P2;PMS_P1;PMS_P2;Temp;Humidity;BMP_temperature;BMP_pressure;BME280_temperature;BME280_humidity;BME280_pressure;Samples;Min_cycle;Max_cycle;Signal;HPM_P1;HPM_P2
2023/03/08 00:01:28;;;;;;;56.57;24.83;;;;;;;-141.97;76.20;47619.03;5011245;28;20175;-83
2023/03/08 00:03:55;;;;;;;51.37;25.37;;;;;;;-141.97;76.17;47701.69;5010974;28;20171;-83
2023/03/08 00:06:22;;;;;;;55.70;26.57;;;;;;;-141.97;75.57;47726.66;5011190;28;20199;-83
2023/03/08 00:08:48;;;;;;;50.77;25.60;;;;;;;-141.97;75.56;47699.75;5009571;28;20796;-83
2023/03/08 00:11:14;;;;;;;51.77;25.13;;;;;;;-141.97;75.27;47722.81;5011906;28;20413;-83
2023/03/08 00:13:40;;;;;;;53.03;24.47;;;;;;;-141.97;75.65;47817.00;5011991;28;20163;-83
2023/03/08 00:16:08;;;;;;;49.83;24.63;;;;;;;-141.97;75.40;47730.50;5011276;28;20405;-84
2023/03/08 00:18:34;;;;;;;57.80;26.97;;;;;;;-141.97;75.34;47715.13;5011342;28;20174;-83
2023/03/08 00:21:06;;;;;;;62.80;28.17;;;;;;;-141.97;75.83;47742.03;5010951;28;20210;-83
2023/03/08 00:23:32;;;;;;;73.03;29.80;;;;;;;-141.97;75.44;47751.66;5012037;28;20449;-83
2023/03/08 00:25:57;;;;;;;97.10;36.50;;;;;;;-141.97;75.85;47786.25;5014885;28;20851;-83
2023/03/08 00:28:23;;;;;;;69.73;31.23;;;;;;;-141.97;76.81;47832.38;5014764;28;20613;-82
2023/03/08 00:31:08;;;;;;;59.93;28.37;;;;;;;-141.97;77.31;47730.50;5014710;28;20171;-83
2023/03/08 00:33:35;;;;;;;56.53;26.40;;;;;;;-141.97;76.95;47730.50;4997520;28;20568;-83
2023/03/08 00:36:03;;;;;;;63.37;27.77;;;;;;;-141.97;76.65;47722.81;5014987;28;20409;-83
2023/03/08 00:38:34;;;;;;;59.40;27.40;;;;;;;-141.97;76.82;47703.59;5014781;28;20409;-83
2023/03/08 00:40:59;;;;;;;57.77;25.50;;;;;;;-141.97;77.52;47715.13;5014493;28;20999;-83
2023/03/08 00:43:25;;;;;;;57.47;25.70;;;;;;;-141.97;79.72;47682.47;5014626;28;20409;-83
2023/03/08 00:45:51;;;;;;;54.63;25.77;;;;;;;-141.97;81.36;47747.81;5014826;28;20246;-82
2023/03/08 00:48:16;;;;;;;54.07;25.67;;;;;;;-141.97;81.97;47699.75;5020782;28;20433;-83
2023/03/08 00:50:42;;;;;;;53.10;24.47;;;;;;;-141.97;84.13;47584.44;5031754;28;20242;-82
2023/03/08 00:53:08;;;;;;;55.67;26.80;;;;;;;-141.97;85.80;47732.44;5031764;28;20171;-83
2023/03/08 00:55:34;;;;;;;59.53;27.17;;;;;;;-141.97;86.35;47745.88;5017939;28;20665;-82
2023/03/08 00:57:59;;;;;;;56.50;26.73;;;;;;;-141.97;85.89;47713.22;5014659;28;20660;-83
2023/03/08 01:00:25;;;;;;;55.60;27.27;;;;;;;-141.97;85.28;47757.41;4996816;28;20178;-83
2023/03/08 01:02:50;;;;;;;56.63;26.87;;;;;;;-141.97;83.97;47722.81;5013765;28;20170;-83
2023/03/08 01:05:16;;;;;;;55.60;25.67;;;;;;;-141.97;83.90;47688.22;5013811;28;20556;-83
2023/03/08 01:07:41;;;;;;;55.47;26.40;;;;;;;-141.97;83.45;47828.53;5013637;28;20593;-83
2023/03/08 01:10:08;;;;;;;54.60;25.83;;;;;;;-141.97;83.64;47728.59;5013897;28;20174;-83
2023/03/08 01:12:34;;;;;;;59.27;26.13;;;;;;;-141.97;83.77;47703.59;5013611;28;20880;-83
2023/03/08 01:15:00;;;;;;;56.40;25.43;;;;;;;-141.97;84.29;47749.72;5013645;28;20409;-82
2023/03/08 01:17:26;;;;;;;57.43;25.83;;;;;;;-141.97;84.46;47699.75;5014119;28;20943;-83
2023/03/08 01:19:51;;;;;;;81.47;31.33;;;;;;;-141.97;83.12;47761.25;5014684;28;20225;-83
2023/03/08 01:22:16;;;;;;;67.17;27.87;;;;;;;-141.97;83.24;47765.09;5013302;28;20218;-83
2023/03/08 01:24:46;;;;;;;51.50;24.20;;;;;;;-141.97;82.47;47738.19;5013672;28;20314;-83
2023/03/08 01:27:13;;;;;;;51.33;23.53;;;;;;;-141.97;81.98;47830.47;5013711;28;20256;-83
2023/03/08 01:29:39;;;;;;;68.10;27.27;;;;;;;-141.97;82.79;47790.09;5013614;28;20410;-83
2023/03/08 01:32:04;;;;;;;54.00;22.90;;;;;;;-141.97;82.10;47707.44;4996448;28;20491;-83
2023/03/08 01:34:30;;;;;;;44.50;20.87;;;;;;;-141.97;82.20;47807.41;5013180;28;20562;-83
2023/03/08 01:36:55;;;;;;;45.47;21.27;;;;;;;-141.97;81.49;47801.63;5013184;28;20205;-83
2023/03/08 01:39:21;;;;;;;47.40;20.90;;;;;;;-141.97;81.44;47713.22;4996157;28;20178;-83
2023/03/08 01:41:46;;;;;;;44.07;19.97;;;;;;;-141.97;82.96;47817.00;5013315;28;20656;-83
2023/03/08 01:44:17;;;;;;;45.33;20.93;;;;;;;-141.97;83.60;47776.63;5017664;28;20178;-85
2023/03/08 01:46:42;;;;;;;48.07;21.00;;;;;;;-141.97;83.71;47715.13;5029453;28;20210;-85
2023/03/08 01:49:27;;;;;;;42.73;20.63;;;;;;;-141.97;83.82;47742.03;5028722;28;20946;-83
2023/03/08 01:52:03;;;;;;;44.87;21.40;;;;;;;-141.97;83.21;47743.97;5013736;28;20284;-83
2023/03/08 01:54:33;;;;;;;47.70;22.67;;;;;;;-141.97;83.12;47759.34;5013069;28;20421;-83
2023/03/08 01:57:03;;;;;;;47.20;21.53;;;;;;;-141.97;82.69;47838.16;5014065;28;20749;-82
2023/03/08 01:59:31;;;;;;;45.87;21.57;;;;;;;-141.97;82.53;47722.81;5014690;28;20947;-83
2023/03/08 02:01:57;;;;;;;47.83;22.80;;;;;;;-141.97;82.76;47715.13;5016687;28;20402;-83
2023/03/08 02:04:24;;;;;;;46.67;21.43;;;;;;;-141.97;82.04;47830.47;5018361;28;20401;-83
2023/03/08 02:06:49;;;;;;;42.77;19.87;;;;;;;-141.97;81.47;47718.97;5013449;28;20528;-83
2023/03/08 02:09:15;;;;;;;44.63;20.23;;;;;;;-141.97;81.46;47745.88;5012599;28;20504;-84
2023/03/08 02:11:41;;;;;;;39.13;19.67;;;;;;;-141.97;81.92;47684.38;5013115;28;20163;-83
2023/03/08 02:14:06;;;;;;;39.47;18.27;;;;;;;-141.97;81.74;47768.94;5013184;28;20626;-83
2023/03/08 02:16:32;;;;;;;43.30;18.90;;;;;;;-141.97;81.63;47768.94;5013762;28;20981;-83
2023/03/08 02:19:03;;;;;;;37.30;17.97;;;;;;;-141.97;81.80;47747.81;5012785;28;20190;-83
2023/03/08 02:21:30;;;;;;;39.47;18.43;;;;;;;-141.97;81.97;47715.13;5012236;28;20667;-83
2023/03/08 02:24:04;;;;;;;41.60;20.13;;;;;;;-141.97;81.86;47730.50;5013152;28;20425;-83
2023/03/08 02:26:29;;;;;;;41.93;19.73;;;;;;;-141.97;81.95;47753.56;5012600;28;20879;-83
2023/03/08 02:28:54;;;;;;;44.07;19.90;;;;;;;-141.97;82.49;47742.03;5012241;28;20517;-83
2023/03/08 02:31:20;;;;;;;44.23;19.67;;;;;;;-141.97;82.81;47669.00;5012159;28;20217;-83
2023/03/08 02:33:45;;;;;;;40.93;19.87;;;;;;;-141.97;82.99;47711.28;5013017;28;20627;-82
2023/03/08 02:36:11;;;;;;;45.97;20.47;;;;;;;-141.97;83.65;47811.25;5013155;28;20652;-83
2023/03/08 02:38:36;;;;;;;39.17;19.37;;;;;;;-141.97;83.48;47749.72;5012591;28;20171;-83
2023/03/08 02:41:02;;;;;;;38.63;18.07;;;;;;;-141.97;83.26;47730.50;4994710;28;20619;-83
2023/03/08 02:43:27;;;;;;;39.60;18.63;;;;;;;-141.97;83.92;47718.97;5012846;28;20189;-83
2023/03/08 02:45:53;;;;;;;37.90;17.63;;;;;;;-141.97;84.16;47722.81;5012615;28;20167;-83
2023/03/08 02:48:18;;;;;;;39.27;18.17;;;;;;;-141.97;84.23;47736.28;5011616;28;20203;-83
2023/03/08 02:50:44;;;;;;;37.43;18.40;;;;;;;-141.97;83.74;47795.88;5012197;28;20185;-83
2023/03/08 02:53:09;;;;;;;35.77;17.10;;;;;;;-141.97;83.64;47803.56;5011598;28;20178;-83
2023/03/08 02:55:35;;;;;;;37.53;17.33;;;;;;;-141.97;83.73;47815.09;5012026;28;20179;-83
2023/03/08 02:58:03;;;;;;;37.53;17.77;;;;;;;-141.97;83.59;47711.28;5011772;28;20199;-83
2023/03/08 03:00:28;;;;;;;38.53;18.23;;;;;;;-141.97;83.13;47776.63;5012481;28;20229;-83
2023/03/08 03:02:54;;;;;;;39.07;17.80;;;;;;;-141.97;83.10;47745.88;5012348;28;20413;-83
2023/03/08 03:05:19;;;;;;;36.53;17.13;;;;;;;-141.97;82.65;47738.19;5011608;28;20182;-83
2023/03/08 03:07:45;;;;;;;37.23;17.00;;;;;;;-141.97;81.67;47768.94;5012130;28;20207;-83
2023/03/08 03:10:11;;;;;;;35.87;16.00;;;;;;;-141.97;81.82;47699.75;5011333;28;20201;-83
2023/03/08 03:12:37;;;;;;;33.83;16.27;;;;;;;-141.97;81.65;47738.19;5012224;28;20169;-83
2023/03/08 03:15:05;;;;;;;38.30;17.90;;;;;;;-141.97;81.76;47728.59;5012657;28;20487;-83
2023/03/08 03:17:31;;;;;;;41.73;20.03;;;;;;;-141.97;81.65;47797.78;5011666;28;20181;-83
2023/03/08 03:19:57;;;;;;;33.40;16.40;;;;;;;-141.97;82.15;47745.88;5011374;28;20437;-84
2023/03/08 03:22:23;;;;;;;33.87;15.27;;;;;;;-141.97;82.33;47726.66;5011184;28;20933;-83
2023/03/08 03:24:51;;;;;;;30.70;15.67;;;;;;;-141.97;82.90;47736.28;5011612;28;20171;-83
2023/03/08 03:27:18;;;;;;;31.67;16.43;;;;;;;-141.97;82.91;47801.63;5011719;28;20233;-83
2023/03/08 03:29:43;;;;;;;34.37;16.27;;;;;;;-141.97;82.24;47707.44;5012131;28;20425;-83
2023/03/08 03:32:08;;;;;;;34.17;15.63;;;;;;;-141.97;81.80;47715.13;5011754;28;20441;-83
2023/03/08 03:34:34;;;;;;;31.83;15.67;;;;;;;-141.97;81.50;47715.13;5011464;28;20242;-83
2023/03/08 03:36:59;;;;;;;33.20;16.10;;;;;;;-141.97;80.91;47718.97;5011336;28;20175;-83
2023/03/08 03:39:25;;;;;;;34.80;16.57;;;;;;;-141.97;80.93;47692.06;5011860;28;20235;-84
2023/03/08 03:41:50;;;;;;;36.47;17.93;;;;;;;-141.97;81.08;47628.63;5011850;28;20174;-83
2023/03/08 03:44:16;;;;;;;33.60;16.00;;;;;;;-141.97;80.14;47759.34;5011789;28;20179;-83
2023/03/08 03:46:41;;;;;;;30.03;14.87;;;;;;;-141.97;80.69;47711.28;5011899;28;20194;-83
2023/03/08 03:49:06;;;;;;;34.90;15.27;;;;;;;-141.97;81.46;47792.03;5011689;28;20167;-83
2023/03/08 03:51:32;;;;;;;34.20;15.93;;;;;;;-141.97;81.71;47749.72;4993633;28;20171;-82
2023/03/08 03:53:57;;;;;;;34.93;16.77;;;;;;;-141.97;82.27;47761.25;5011061;28;20227;-83
2023/03/08 03:56:25;;;;;;;33.23;15.83;;;;;;;-141.97;81.81;47822.78;5011250;28;20170;-83
2023/03/08 03:58:52;;;;;;;40.17;17.20;;;;;;;-141.97;81.79;47745.88;5012805;28;20173;-83
2023/03/08 04:01:28;;;;;;;36.00;17.20;;;;;;;-141.97;81.43;47755.50;5015445;28;20452;-83
2023/03/08 04:03:55;;;;;;;36.90;17.13;;;;;;;-141.97;81.80;47742.03;5015397;28;20416;-83
2023/03/08 04:06:26;;;;;;;35.07;16.80;;;;;;;-141.97;81.70;47745.88;5015649;28;20559;-84
2023/03/08 04:08:54;;;;;;;33.17;16.17;;;;;;;-141.97;81.89;47788.19;5016325;28;20409;-83
2023/03/08 04:11:22;;;;;;;37.43;17.57;;;;;;;-141.97;82.40;47603.66;5006442;28;20422;-83
2023/03/08 04:13:48;;;;;;;35.33;17.47;;;;;;;-141.97;82.68;47749.72;5016331;28;20410;-83
2023/03/08 04:16:16;;;;;;;43.27;17.70;;;;;;;-141.97;82.60;47745.88;4983147;28;20429;-83
2023/03/08 04:18:42;;;;;;;40.87;17.40;;;;;;;-141.97;82.66;47690.16;5009518;28;20186;-83
2023/03/08 04:21:08;;;;;;;40.27;17.83;;;;;;;-141.97;83.37;47715.13;5035648;28;20462;-83
2023/03/08 04:23:35;;;;;;;37.90;16.27;;;;;;;-141.97;83.33;47730.50;5035642;28;20462;-84
2023/03/08 04:26:01;;;;;;;37.63;17.53;;;;;;;-141.97;83.72;47747.81;5035567;28;20505;-84
2023/03/08 04:28:27;;;;;;;40.13;18.20;;;;;;;-141.97;84.32;47772.78;5035958;28;20413;-84
2023/03/08 04:30:52;;;;;;;42.13;19.50;;;;;;;-141.97;84.38;47795.88;5035660;28;20451;-83
2023/03/08 04:33:18;;;;;;;42.10;19.50;;;;;;;-141.97;83.73;47705.53;5034717;28;20162;-84
2023/03/08 04:35:43;;;;;;;38.07;16.80;;;;;;;-141.97;84.07;47680.53;5034596;28;20631;-84
2023/03/08 04:38:09;;;;;;;41.27;17.90;;;;;;;-141.97;84.30;47784.34;5034633;28;20170;-83
2023/03/08 04:41:00;;;;;;;44.70;19.33;;;;;;;-141.97;85.65;47718.97;5034508;28;20287;-83
2023/03/08 04:43:19;;;;;;;43.23;19.10;;;;;;;-141.97;86.25;47728.59;5033941;28;20166;-83
2023/03/08 04:45:45;;;;;;;42.07;19.77;;;;;;;-141.97;86.54;47740.13;5033906;28;20425;-83
2023/03/08 04:48:10;;;;;;;50.10;20.87;;;;;;;-141.97;86.14;47726.66;5033944;28;20202;-84
2023/03/08 04:50:38;;;;;;;54.70;23.40;;;;;;;-141.97;85.65;47699.75;5033862;28;20192;-84
2023/03/08 04:53:03;;;;;;;65.73;26.57;;;;;;;-141.97;85.82;47738.19;5033710;28;20162;-83
2023/03/08 04:55:29;;;;;;;58.00;22.30;;;;;;;-141.97;86.02;47565.22;5033760;28;20403;-84
2023/03/08 04:57:54;;;;;;;40.23;18.43;;;;;;;-141.97;86.58;47757.41;5034441;28;20642;-83
2023/03/08 05:00:19;;;;;;;38.10;18.20;;;;;;;-141.97;86.96;47722.81;5033881;28;20252;-82
2023/03/08 05:02:45;;;;;;;41.70;20.57;;;;;;;-141.97;86.87;47792.03;5033741;28;20166;-83
2023/03/08 05:05:10;;;;;;;49.07;23.30;;;;;;;-141.97;86.53;47799.72;5033776;28;20549;-82
2023/03/08 05:07:36;;;;;;;53.27;24.53;;;;;;;-141.97;86.23;47753.56;5034015;28;20273;-83
2023/03/08 05:10:01;;;;;;;56.17;23.60;;;;;;;-141.97;85.76;47718.97;5015819;28;20639;-83
2023/03/08 05:12:27;;;;;;;47.50;22.00;;;;;;;-141.97;85.79;47749.72;5035204;28;20247;-83
2023/03/08 05:14:52;;;;;;;63.13;30.30;;;;;;;-141.97;85.63;47738.19;5033830;28;20194;-84
2023/03/08 05:17:18;;;;;;;50.77;24.67;;;;;;;-141.97;85.27;47642.09;5015978;28;20173;-84
2023/03/08 05:19:43;;;;;;;40.40;19.47;;;;;;;-141.97;85.51;47749.72;5034740;28;20166;-83
2023/03/08 05:22:08;;;;;;;38.37;17.73;;;;;;;-141.97;85.19;47745.88;5033400;28;20275;-84
2023/03/08 05:24:34;;;;;;;42.57;18.83;;;;;;;-141.97;84.77;47738.19;5033042;28;20165;-84
2023/03/08 05:26:59;;;;;;;39.03;18.00;;;;;;;-141.97;83.77;47684.38;5033307;28;20225;-83
2023/03/08 05:29:25;;;;;;;39.37;19.27;;;;;;;-141.97;83.64;47607.50;5015192;28;20178;-84
2023/03/08 05:31:50;;;;;;;40.63;18.80;;;;;;;-141.97;83.39;47776.63;5033275;28;20173;-84
2023/03/08 05:34:15;;;;;;;47.13;20.40;;;;;;;-141.97;82.21;47757.41;5033350;28;20638;-83
2023/03/08 05:36:41;;;;;;;41.07;19.67;;;;;;;-141.97;81.54;47749.72;5033661;28;20244;-83
2023/03/08 05:39:07;;;;;;;43.80;18.73;;;;;;;-141.97;81.22;47745.88;5033266;28;20162;-83
2023/03/08 05:41:32;;;;;;;433.47;89.10;;;;;;;-141.97;81.65;47667.06;5006968;28;20234;-85
2023/03/08 05:44:00;;;;;;;137.90;42.60;;;;;;;-141.97;81.21;47738.19;5014136;28;20177;-84
2023/03/08 05:46:25;;;;;;;92.13;36.07;;;;;;;-141.97;81.53;47732.44;5013265;28;20226;-85
2023/03/08 05:48:51;;;;;;;74.63;38.17;;;;;;;-141.97;81.27;47849.69;5018595;28;20480;-85
2023/03/08 05:51:18;;;;;;;60.50;31.87;;;;;;;-141.97;80.58;47818.94;5034560;28;20163;-85
2023/03/08 05:53:43;;;;;;;44.53;23.40;;;;;;;-141.97;80.71;47715.13;5023152;28;20189;-84
2023/03/08 05:56:15;;;;;;;39.00;20.60;;;;;;;-141.97;80.44;47718.97;5033957;28;20418;-85
2023/03/08 05:58:41;;;;;;;39.50;19.57;;;;;;;-141.97;80.96;47649.78;5026854;28;20186;-85
2023/03/08 06:01:16;;;;;;;37.60;19.93;;;;;;;-141.97;81.31;47697.84;5016822;28;20948;-85
2023/03/08 06:03:46;;;;;;;42.20;21.83;;;;;;;-141.97;81.18;47722.81;5015655;28;20958;-84
2023/03/08 06:06:13;;;;;;;45.83;22.70;;;;;;;-141.97;80.72;47726.66;5014034;28;20468;-83
2023/03/08 06:08:38;;;;;;;43.10;21.83;;;;;;;-141.97;80.17;47765.09;5018150;28;20482;-85
2023/03/08 06:11:04;;;;;;;48.80;26.73;;;;;;;-141.97;80.51;47747.81;5026933;28;20453;-86
2023/03/08 06:13:30;;;;;;;50.20;26.60;;;;;;;-141.97;80.03;47749.72;5013608;28;20178;-85
2023/03/08 06:15:57;;;;;;;57.00;29.57;;;;;;;-141.97;79.48;47788.19;5010673;28;20266;-87
2023/03/08 06:18:23;;;;;;;74.27;35.80;;;;;;;-141.97;79.47;47684.38;5011980;28;20795;-88
2023/03/08 06:21:04;;;;;;;82.07;40.23;;;;;;;-141.97;80.08;47699.75;5011159;28;20500;-85
2023/03/08 06:23:32;;;;;;;45.63;23.77;;;;;;;-141.97;79.97;47707.44;5012813;28;20180;-85
2023/03/08 06:25:58;;;;;;;36.03;18.60;;;;;;;-141.97;79.90;47676.69;4994805;28;20833;-85
2023/03/08 06:28:25;;;;;;;30.37;15.87;;;;;;;-141.97;78.40;47790.09;5011687;28;20470;-86
2023/03/08 06:30:51;;;;;;;32.90;16.53;;;;;;;-141.97;77.90;47718.97;4994873;28;20888;-86
2023/03/08 06:33:18;;;;;;;33.13;16.17;;;;;;;-141.97;76.77;47776.63;5012991;28;20417;-86
2023/03/08 06:35:53;;;;;;;30.30;14.73;;;;;;;-141.97;75.36;47722.81;5017878;28;20179;-87
2023/03/08 06:38:19;;;;;;;36.17;18.37;;;;;;;-141.97;74.51;47740.13;5075450;22;20506;-86
2023/03/08 06:40:44;;;;;;;50.43;27.23;;;;;;;-141.97;73.68;47715.13;5048470;28;20405;-87
2023/03/08 06:43:10;;;;;;;36.70;18.23;;;;;;;-141.97;73.16;47730.50;5010814;28;20633;-85
2023/03/08 06:45:37;;;;;;;40.43;20.70;;;;;;;-141.97;73.45;47790.09;5011000;28;20178;-86
2023/03/08 06:48:02;;;;;;;33.57;17.87;;;;;;;-141.97;72.41;47717.06;5012022;28;20206;-88
2023/03/08 06:50:28;;;;;;;24.37;12.27;;;;;;;-141.97;73.02;47680.53;5014442;28;20440;-90
2023/03/08 06:52:54;;;;;;;21.90;11.43;;;;;;;-141.97;72.62;47726.66;5009620;28;20269;-88
2023/03/08 06:55:19;;;;;;;21.43;11.43;;;;;;;-141.97;71.65;47786.25;5013857;28;20178;-88
2023/03/08 06:57:45;;;;;;;28.07;12.30;;;;;;;-141.97;70.85;47788.19;5010194;28;20277;-88
2023/03/08 07:00:12;;;;;;;23.13;12.20;;;;;;;-141.97;70.11;47661.31;5015037;28;20228;-88
2023/03/08 07:02:38;;;;;;;20.70;11.27;;;;;;;-141.97;69.65;47703.59;5011288;28;20426;-88
2023/03/08 07:05:03;;;;;;;21.07;11.23;;;;;;;-141.97;69.14;47597.88;5012967;28;20425;-89
2023/03/08 07:07:29;;;;;;;20.83;11.17;;;;;;;-141.97;69.45;47780.47;5013837;28;20206;-88
2023/03/08 07:09:54;;;;;;;22.67;12.40;;;;;;;-141.97;68.28;47669.00;5012471;28;20182;-89
2023/03/08 07:12:20;;;;;;;21.77;10.47;;;;;;;-141.97;68.30;47749.72;5011595;28;20171;-88
2023/03/08 07:14:45;;;;;;;19.27;10.57;;;;;;;-141.97;67.30;47824.69;5012515;28;20174;-89
2023/03/08 07:17:10;;;;;;;22.30;11.60;;;;;;;-141.97;67.21;47594.03;5011770;28;20266;-88
2023/03/08 07:19:36;;;;;;;22.67;12.23;;;;;;;-141.97;65.82;47759.34;5010744;28;20163;-85
2023/03/08 07:22:01;;;;;;;23.37;11.20;;;;;;;-141.97;64.94;47686.31;5012791;28;20569;-83
2023/03/08 07:24:26;;;;;;;24.70;11.70;;;;;;;-141.97;65.55;47738.19;5012888;28;20280;-83
2023/03/08 07:26:52;;;;;;;21.33;10.73;;;;;;;-141.97;63.17;47730.50;5014176;28;20194;-83
2023/03/08 07:29:17;;;;;;;22.73;12.10;;;;;;;-141.97;61.62;47859.28;5019082;28;20631;-82
2023/03/08 07:31:43;;;;;;;20.23;11.23;;;;;;;-141.97;60.58;47626.72;5018758;28;20240;-85
2023/03/08 07:34:08;;;;;;;23.47;14.10;;;;;;;-141.97;60.43;47784.34;5016113;28;20598;-85
2023/03/08 07:36:33;;;;;;;24.97;13.40;;;;;;;-141.97;61.25;47576.75;5026898;28;20170;-84
2023/03/08 07:38:59;;;;;;;21.17;11.60;;;;;;;-141.97;62.01;47692.06;5016534;28;20219;-85
2023/03/08 07:41:27;;;;;;;23.63;12.90;;;;;;;-141.97;61.70;47695.91;5017930;28;20250;-85
2023/03/08 07:43:53;;;;;;;23.40;11.60;;;;;;;-141.97;60.61;47715.13;5017922;28;20615;-85
2023/03/08 07:46:18;;;;;;;20.13;10.90;;;;;;;-141.97;59.89;47699.75;5017277;28;20174;-85
2023/03/08 07:48:43;;;;;;;25.47;11.13;;;;;;;-141.97;59.79;47728.59;5018077;28;20193;-86
2023/03/08 07:51:09;;;;;;;17.37;9.93;;;;;;;-141.97;59.31;47742.03;5018505;28;20627;-85
2023/03/08 07:53:36;;;;;;;19.87;11.00;;;;;;;-141.97;59.26;47763.19;5005988;28;20312;-84
2023/03/08 07:56:01;;;;;;;18.27;9.83;;;;;;;-141.97;58.55;47713.22;5020458;28;20173;-85
2023/03/08 07:58:28;;;;;;;27.37;12.33;;;;;;;-141.97;57.42;47695.91;5019733;28;20166;-84
2023/03/08 08:00:53;;;;;;;24.57;12.13;;;;;;;-141.97;58.27;47718.97;5020631;28;20155;-85
2023/03/08 08:03:19;;;;;;;21.23;10.40;;;;;;;-141.97;58.38;47730.50;5019657;28;20253;-85
2023/03/08 08:05:44;;;;;;;20.60;10.67;;;;;;;-141.97;56.55;47678.63;5018778;28;20151;-85
2023/03/08 08:08:12;;;;;;;22.87;13.07;;;;;;;-141.97;55.71;47724.75;5016166;28;20654;-86
2023/03/08 08:10:38;;;;;;;15.23;8.50;;;;;;;-141.97;54.43;47815.09;5017415;28;20238;-85
2023/03/08 08:13:04;;;;;;;17.30;8.80;;;;;;;-141.97;53.88;47817.00;5016826;28;20167;-84
2023/03/08 08:15:29;;;;;;;17.37;10.40;;;;;;;-141.97;53.40;47820.84;5015383;28;20170;-85
2023/03/08 08:17:55;;;;;;;22.17;13.50;;;;;;;-141.97;52.75;47607.50;5015364;28;20242;-85
2023/03/08 08:20:20;;;;;;;18.53;10.77;;;;;;;-141.97;52.80;47738.19;5015767;28;20185;-85
2023/03/08 08:22:46;;;;;;;25.17;14.10;;;;;;;-141.97;52.78;47695.91;5014492;28;20643;-85
2023/03/08 08:25:11;;;;;;;20.83;11.00;;;;;;;-141.97;52.55;47626.72;5016083;28;20217;-85
2023/03/08 08:27:37;;;;;;;22.63;12.27;;;;;;;-141.97;52.31;47840.06;5013643;28;20202;-86
2023/03/08 08:30:04;;;;;;;17.27;10.33;;;;;;;-141.97;51.04;47692.06;5016019;28;20193;-85
2023/03/08 08:32:32;;;;;;;16.60;9.00;;;;;;;-141.97;49.60;47684.38;5014700;28;20221;-85
2023/03/08 08:34:58;;;;;;;18.60;10.40;;;;;;;-141.97;50.47;47720.91;5012764;28;20190;-85
2023/03/08 08:37:23;;;;;;;22.57;12.33;;;;;;;-141.97;49.82;47838.16;5013537;28;20163;-85
2023/03/08 08:39:49;;;;;;;22.17;11.13;;;;;;;-141.97;50.31;47555.59;5013064;28;20222;-85
2023/03/08 08:42:14;;;;;;;17.53;10.33;;;;;;;-141.97;49.28;47830.47;5013212;28;20233;-85
2023/03/08 08:44:40;;;;;;;15.77;10.03;;;;;;;-141.97;49.55;47855.44;4996669;28;20237;-85
2023/03/08 08:47:05;;;;;;;18.27;10.30;;;;;;;-141.97;49.00;47765.09;5000139;28;20684;-85
2023/03/08 08:49:30;;;;;;;17.20;9.93;;;;;;;-141.97;48.39;47759.34;4997961;28;20175;-85
2023/03/08 08:51:56;;;;;;;27.63;13.67;;;;;;;-141.97;48.52;47603.66;5000323;28;20254;-86
2023/03/08 08:54:21;;;;;;;18.27;10.53;;;;;;;-141.97;48.38;47780.47;5017486;28;20183;-85
2023/03/08 08:56:46;;;;;;;38.20;17.70;;;;;;;-141.97;47.22;47680.53;5005664;28;20167;-85
2023/03/08 08:59:12;;;;;;;17.93;10.40;;;;;;;-141.97;46.89;47738.19;4999158;28;20628;-84
2023/03/08 09:01:42;;;;;;;16.57;9.03;;;;;;;-141.97;47.14;47807.41;5002617;28;20306;-85
2023/03/08 09:04:09;;;;;;;14.47;9.30;;;;;;;-141.97;47.14;47611.34;4998393;28;20164;-84
2023/03/08 09:06:35;;;;;;;10.70;7.23;;;;;;;-141.97;45.29;47768.94;4997096;28;20203;-85
2023/03/08 09:09:00;;;;;;;13.63;8.10;;;;;;;-141.97;43.80;47640.16;4998334;28;20242;-85
2023/03/08 09:11:27;;;;;;;11.97;7.50;;;;;;;-141.97;44.51;47644.00;4996910;28;20238;-84
2023/03/08 09:13:53;;;;;;;16.80;8.07;;;;;;;-141.97;44.17;47553.69;4996957;28;20167;-84
2023/03/08 09:16:21;;;;;;;14.37;7.43;;;;;;;-141.97;43.94;47761.25;4995446;28;20174;-84
2023/03/08 09:18:47;;;;;;;13.40;7.77;;;;;;;-141.97;42.88;47626.72;4996228;28;20246;-84
2023/03/08 09:21:13;;;;;;;14.53;7.57;;;;;;;-141.97;41.67;47503.69;4995877;28;20233;-84
2023/03/08 09:23:39;;;;;;;10.57;7.47;;;;;;;-141.97;41.97;47807.41;4996975;28;20270;-84
2023/03/08 09:26:05;;;;;;;15.53;7.73;;;;;;;-141.97;40.59;47599.81;4997707;28;20167;-84
2023/03/08 09:28:31;;;;;;;15.00;7.07;;;;;;;-141.97;40.06;47619.03;4997888;28;20222;-84
2023/03/08 09:30:56;;;;;;;9.93;6.93;;;;;;;-141.97;40.22;47828.53;4997341;28;20202;-84
2023/03/08 09:33:22;;;;;;;13.17;7.13;;;;;;;-141.97;40.69;47622.88;4989858;28;20262;-85
2023/03/08 09:35:58;;;;;;;12.67;7.00;;;;;;;-141.97;39.88;47588.28;5015048;28;20175;-85
2023/03/08 09:38:24;;;;;;;11.93;6.90;;;;;;;-141.97;38.84;47595.97;5017485;28;20283;-86
2023/03/08 09:41:05;;;;;;;10.23;6.03;;;;;;;-141.97;37.77;47726.66;5033707;28;20182;-85
2023/03/08 09:43:46;;;;;;;11.90;6.60;;;;;;;-141.97;38.39;47630.56;5035126;28;20625;-86
2023/03/08 09:46:15;;;;;;;10.57;6.50;;;;;;;-141.97;38.94;47695.91;5015821;28;20174;-84
2023/03/08 09:48:46;;;;;;;11.97;6.30;;;;;;;-141.97;39.07;47626.72;5018059;28;20178;-84
2023/03/08 09:51:16;;;;;;;13.63;6.70;;;;;;;-141.97;40.02;47836.22;5016707;28;20171;-86
2023/03/08 09:53:50;;;;;;;9.17;6.20;;;;;;;-141.97;40.13;47586.34;5020441;28;20166;-85
2023/03/08 09:56:50;;;;;;;9.87;6.67;;;;;;;-141.97;39.42;47690.16;5018854;28;20167;-87
2023/03/08 09:59:43;;;;;;;9.17;6.33;;;;;;;-141.97;38.60;47672.84;5028357;28;20189;-85
2023/03/08 10:02:12;;;;;;;11.03;6.77;;;;;;;-141.97;37.89;47680.53;5038148;28;20213;-85
2023/03/08 10:04:57;;;;;;;37.77;24.67;;;;;;;-141.97;38.31;47690.16;5032392;28;20205;-85
2023/03/08 10:07:51;;;;;;;12.33;7.43;;;;;;;-141.97;37.94;47628.63;5019690;28;20199;-86
2023/03/08 10:10:38;;;;;;;13.93;8.07;;;;;;;-141.97;37.06;47632.47;5017665;28;20232;-85
2023/03/08 10:13:33;;;;;;;10.43;6.23;;;;;;;-141.97;36.70;47615.19;5020329;28;20166;-86
2023/03/08 10:16:06;;;;;;;9.10;6.23;;;;;;;-141.97;36.41;47674.78;5019716;28;20174;-86
2023/03/08 10:18:41;;;;;;;11.97;7.17;;;;;;;-141.97;37.16;47611.34;5018906;28;20623;-85
2023/03/08 10:21:11;;;;;;;12.77;7.40;;;;;;;-141.97;36.09;47761.25;5020758;28;20623;-84
2023/03/08 10:23:40;;;;;;;10.17;6.10;;;;;;;-141.97;35.37;47676.69;5020706;28;20229;-85
2023/03/08 10:26:11;;;;;;;10.20;6.60;;;;;;;-141.97;35.71;47601.72;5018785;28;20174;-84
2023/03/08 10:28:36;;;;;;;9.50;6.17;;;;;;;-141.97;34.51;47786.25;5034259;28;20260;-86
2023/03/08 10:31:17;;;;;;;11.37;6.40;;;;;;;-141.97;33.22;47630.56;5038667;28;20216;-85
2023/03/08 10:33:42;;;;;;;5.90;4.47;;;;;;;-141.97;31.37;47609.41;5038394;28;20184;-86
2023/03/08 10:36:20;;;;;;;8.73;4.90;;;;;;;-141.97;31.39;47622.88;5016991;28;20178;-86
2023/03/08 10:39:07;;;;;;;7.20;5.20;;;;;;;-141.97;32.02;47632.47;5010577;28;20222;-86
2023/03/08 10:41:40;;;;;;;7.90;4.43;;;;;;;-141.97;31.31;47642.09;4995488;28;20233;-86
2023/03/08 10:44:11;;;;;;;5.97;4.40;;;;;;;-141.97;31.12;47628.63;4998023;28;20205;-86
2023/03/08 10:46:46;;;;;;;6.00;4.43;;;;;;;-141.97;29.91;47786.25;5015193;28;20194;-86
2023/03/08 10:49:17;;;;;;;5.73;4.10;;;;;;;-141.97;29.89;47613.25;5015334;28;20166;-87
2023/03/08 10:51:55;;;;;;;5.13;3.50;;;;;;;-141.97;29.85;47603.66;5015014;28;20181;-87
2023/03/08 10:54:20;;;;;;;5.70;3.27;;;;;;;-141.97;29.07;47505.63;5015828;28;20265;-86
2023/03/08 10:56:56;;;;;;;4.77;3.47;;;;;;;-141.97;28.95;47617.09;5013783;28;20238;-85
2023/03/08 10:59:31;;;;;;;4.73;3.60;;;;;;;-141.97;29.57;47619.03;5016110;28;20165;-86
2023/03/08 11:02:15;;;;;;;5.20;3.53;;;;;;;-141.97;29.67;47630.56;5012725;28;20224;-85
2023/03/08 11:04:58;;;;;;;3.27;2.90;;;;;;;-141.97;28.89;47634.41;5018386;28;20201;-85
2023/03/08 11:07:26;;;;;;;3.60;3.00;;;;;;;-141.97;28.73;47615.19;5015407;28;20234;-84